sensor_id;sensor_type;location;lat;lon;timestamp;P1;durP1;ratioP1;P2;durP2;ratioP2
22318;SDS011;11327;52.334;9.506;2024-02-23T00:03:00;3.80;;;0.62;;
22318;SDS011;11327;52.334;9.506;2024-02-23T00:06:21;3.62;;;0.65;;
22318;SDS011;11327;52.334;9.506;2024-02-23T00:09:44;5.65;;;0.88;;
22318;SDS011;11327;52.334;9.506;2024-02-23T00:13:04;3.25;;;0.62;;
22318;SDS011;11327;52.334;9.506;2024-02-23T00:16:25;4.08;;;0.60;;
22318;SDS011;11327;52.334;9.506;2024-02-23T00:19:46;3.60;;;1.05;;
22318;SDS011;11327;52.334;9.506;2024-02-23T00:23:07;4.00;;;0.80;;
22318;SDS011;11327;52.334;9.506;2024-02-23T00:26:28;4.17;;;1.25;;
22318;SDS011;11327;52.334;9.506;2024-02-23T00:29:50;2.20;;;0.60;;
22318;SDS011;11327;52.334;9.506;2024-02-23T00:33:10;3.37;;;0.55;;
22318;SDS011;11327;52.334;9.506;2024-02-23T00:36:31;2.25;;;0.60;;
22318;SDS011;11327;52.334;9.506;2024-02-23T00:39:52;3.80;;;0.62;;
22318;SDS011;11327;52.334;9.506;2024-02-23T00:43:12;2.40;;;0.70;;
22318;SDS011;11327;52.334;9.506;2024-02-23T00:46:33;1.80;;;0.68;;
22318;SDS011;11327;52.334;9.506;2024-02-23T00:49:54;3.37;;;0.53;;
22318;SDS011;11327;52.334;9.506;2024-02-23T00:53:15;2.22;;;0.60;;
22318;SDS011;11327;52.334;9.506;2024-02-23T00:56:37;1.50;;;0.60;;
22318;SDS011;11327;52.334;9.506;2024-02-23T00:59:59;2.35;;;0.55;;
22318;SDS011;11327;52.334;9.506;2024-02-23T01:03:19;1.85;;;0.53;;
22318;SDS011;11327;52.334;9.506;2024-02-23T01:06:40;0.98;;;0.50;;
22318;SDS011;11327;52.334;9.506;2024-02-23T01:10:01;0.93;;;0.40;;
22318;SDS011;11327;52.334;9.506;2024-02-23T01:13:22;1.05;;;0.33;;
22318;SDS011;11327;52.334;9.506;2024-02-23T01:16:42;2.20;;;0.57;;
22318;SDS011;11327;52.334;9.506;2024-02-23T01:20:04;1.22;;;0.40;;
22318;SDS011;11327;52.334;9.506;2024-02-23T01:23:25;1.32;;;0.47;;
22318;SDS011;11327;52.334;9.506;2024-02-23T01:26:46;1.45;;;0.60;;
22318;SDS011;11327;52.334;9.506;2024-02-23T01:30:07;1.02;;;0.60;;
22318;SDS011;11327;52.334;9.506;2024-02-23T01:33:28;1.17;;;0.70;;
22318;SDS011;11327;52.334;9.506;2024-02-23T01:36:48;1.20;;;0.50;;
22318;SDS011;11327;52.334;9.506;2024-02-23T01:40:09;1.50;;;0.55;;
22318;SDS011;11327;52.334;9.506;2024-02-23T01:43:30;0.42;;;0.30;;
22318;SDS011;11327;52.334;9.506;2024-02-23T01:46:51;0.30;;;0.20;;
22318;SDS011;11327;52.334;9.506;2024-02-23T01:50:12;0.13;;;0.13;;
22318;SDS011;11327;52.334;9.506;2024-02-23T01:53:33;0.90;;;0.23;;
22318;SDS011;11327;52.334;9.506;2024-02-23T01:56:53;0.28;;;0.20;;
22318;SDS011;11327;52.334;9.506;2024-02-23T02:00:16;0.33;;;0.10;;
22318;SDS011;11327;52.334;9.506;2024-02-23T02:03:38;0.20;;;0.10;;
22318;SDS011;11327;52.334;9.506;2024-02-23T02:06:59;0.20;;;0.20;;
22318;SDS011;11327;52.334;9.506;2024-02-23T02:10:21;0.13;;;0.13;;
22318;SDS011;11327;52.334;9.506;2024-02-23T02:13:42;0.40;;;0.17;;
22318;SDS011;11327;52.334;9.506;2024-02-23T02:17:02;0.10;;;0.10;;
22318;SDS011;11327;52.334;9.506;2024-02-23T02:20:24;0.30;;;0.10;;
22318;SDS011;11327;52.334;9.506;2024-02-23T02:23:46;0.33;;;0.20;;
22318;SDS011;11327;52.334;9.506;2024-02-23T02:27:07;0.30;;;0.30;;
22318;SDS011;11327;52.334;9.506;2024-02-23T02:30:28;0.28;;;0.20;;
22318;SDS011;11327;52.334;9.506;2024-02-23T02:33:48;0.42;;;0.28;;
22318;SDS011;11327;52.334;9.506;2024-02-23T02:37:09;0.68;;;0.30;;
22318;SDS011;11327;52.334;9.506;2024-02-23T02:40:30;1.07;;;0.30;;
22318;SDS011;11327;52.334;9.506;2024-02-23T02:43:52;1.20;;;0.30;;
22318;SDS011;11327;52.334;9.506;2024-02-23T02:47:12;0.93;;;0.50;;
22318;SDS011;11327;52.334;9.506;2024-02-23T02:50:33;0.75;;;0.35;;
22318;SDS011;11327;52.334;9.506;2024-02-23T02:53:54;0.50;;;0.42;;
22318;SDS011;11327;52.334;9.506;2024-02-23T02:57:15;1.10;;;0.60;;
22318;SDS011;11327;52.334;9.506;2024-02-23T03:00:35;0.80;;;0.40;;
22318;SDS011;11327;52.334;9.506;2024-02-23T03:03:56;1.87;;;0.68;;
22318;SDS011;11327;52.334;9.506;2024-02-23T03:07:17;0.60;;;0.40;;
22318;SDS011;11327;52.334;9.506;2024-02-23T03:10:37;1.65;;;0.70;;
22318;SDS011;11327;52.334;9.506;2024-02-23T03:13:59;2.42;;;0.60;;
22318;SDS011;11327;52.334;9.506;2024-02-23T03:17:19;1.75;;;0.82;;
22318;SDS011;11327;52.334;9.506;2024-02-23T03:20:41;3.45;;;0.90;;
22318;SDS011;11327;52.334;9.506;2024-02-23T03:24:02;3.30;;;0.95;;
22318;SDS011;11327;52.334;9.506;2024-02-23T03:27:27;4.35;;;1.10;;
22318;SDS011;11327;52.334;9.506;2024-02-23T03:30:48;2.40;;;0.90;;
22318;SDS011;11327;52.334;9.506;2024-02-23T03:34:08;1.15;;;0.90;;
22318;SDS011;11327;52.334;9.506;2024-02-23T03:37:29;2.95;;;1.35;;
22318;SDS011;11327;52.334;9.506;2024-02-23T03:40:50;2.60;;;1.35;;
22318;SDS011;11327;52.334;9.506;2024-02-23T03:44:11;2.27;;;1.35;;
22318;SDS011;11327;52.334;9.506;2024-02-23T03:47:32;2.85;;;1.40;;
22318;SDS011;11327;52.334;9.506;2024-02-23T03:50:52;2.72;;;1.67;;
22318;SDS011;11327;52.334;9.506;2024-02-23T03:54:14;3.67;;;1.87;;
22318;SDS011;11327;52.334;9.506;2024-02-23T03:57:35;2.95;;;1.67;;
22318;SDS011;11327;52.334;9.506;2024-02-23T04:00:56;1.65;;;1.50;;
22318;SDS011;11327;52.334;9.506;2024-02-23T04:04:17;3.92;;;1.95;;
22318;SDS011;11327;52.334;9.506;2024-02-23T04:07:37;3.10;;;1.70;;
22318;SDS011;11327;52.334;9.506;2024-02-23T04:10:58;4.28;;;1.70;;
22318;SDS011;11327;52.334;9.506;2024-02-23T04:14:19;4.33;;;1.72;;
22318;SDS011;11327;52.334;9.506;2024-02-23T04:17:39;5.47;;;1.90;;
22318;SDS011;11327;52.334;9.506;2024-02-23T04:21:00;2.95;;;1.50;;
22318;SDS011;11327;52.334;9.506;2024-02-23T04:24:21;3.55;;;1.82;;
22318;SDS011;11327;52.334;9.506;2024-02-23T04:27:42;2.90;;;1.80;;
22318;SDS011;11327;52.334;9.506;2024-02-23T04:31:04;5.47;;;1.87;;
22318;SDS011;11327;52.334;9.506;2024-02-23T04:34:25;3.27;;;1.85;;
22318;SDS011;11327;52.334;9.506;2024-02-23T04:37:45;4.35;;;1.87;;
22318;SDS011;11327;52.334;9.506;2024-02-23T04:41:06;2.58;;;1.70;;
22318;SDS011;11327;52.334;9.506;2024-02-23T04:44:27;3.90;;;1.77;;
22318;SDS011;11327;52.334;9.506;2024-02-23T04:47:48;2.87;;;1.40;;
22318;SDS011;11327;52.334;9.506;2024-02-23T04:51:09;4.25;;;1.70;;
22318;SDS011;11327;52.334;9.506;2024-02-23T04:54:32;4.03;;;1.45;;
22318;SDS011;11327;52.334;9.506;2024-02-23T04:57:53;4.50;;;1.37;;
22318;SDS011;11327;52.334;9.506;2024-02-23T05:01:14;1.90;;;1.20;;
22318;SDS011;11327;52.334;9.506;2024-02-23T05:04:34;2.00;;;1.10;;
22318;SDS011;11327;52.334;9.506;2024-02-23T05:07:55;1.40;;;1.00;;
22318;SDS011;11327;52.334;9.506;2024-02-23T05:11:16;3.37;;;1.10;;
22318;SDS011;11327;52.334;9.506;2024-02-23T05:14:37;3.60;;;1.10;;
22318;SDS011;11327;52.334;9.506;2024-02-23T05:17:57;2.35;;;0.98;;
22318;SDS011;11327;52.334;9.506;2024-02-23T05:21:18;4.60;;;1.00;;
22318;SDS011;11327;52.334;9.506;2024-02-23T05:24:39;3.00;;;1.00;;
22318;SDS011;11327;52.334;9.506;2024-02-23T05:27:59;1.50;;;0.80;;
22318;SDS011;11327;52.334;9.506;2024-02-23T05:31:20;3.20;;;1.05;;
22318;SDS011;11327;52.334;9.506;2024-02-23T05:34:45;3.52;;;0.80;;
22318;SDS011;11327;52.334;9.506;2024-02-23T05:38:05;2.05;;;0.80;;
22318;SDS011;11327;52.334;9.506;2024-02-23T05:41:26;2.92;;;0.93;;
22318;SDS011;11327;52.334;9.506;2024-02-23T05:44:47;4.35;;;0.85;;
22318;SDS011;11327;52.334;9.506;2024-02-23T05:48:09;2.85;;;0.88;;
22318;SDS011;11327;52.334;9.506;2024-02-23T05:51:30;4.10;;;0.90;;
22318;SDS011;11327;52.334;9.506;2024-02-23T05:54:51;3.45;;;0.70;;
22318;SDS011;11327;52.334;9.506;2024-02-23T05:58:12;4.50;;;0.90;;
22318;SDS011;11327;52.334;9.506;2024-02-23T06:01:34;2.50;;;0.90;;
22318;SDS011;11327;52.334;9.506;2024-02-23T06:04:54;2.67;;;1.00;;
22318;SDS011;11327;52.334;9.506;2024-02-23T06:08:15;4.72;;;1.17;;
22318;SDS011;11327;52.334;9.506;2024-02-23T06:11:36;4.00;;;1.10;;
22318;SDS011;11327;52.334;9.506;2024-02-23T06:14:56;4.87;;;1.17;;
22318;SDS011;11327;52.334;9.506;2024-02-23T06:18:18;5.80;;;1.10;;
22318;SDS011;11327;52.334;9.506;2024-02-23T06:21:39;2.67;;;1.37;;
22318;SDS011;11327;52.334;9.506;2024-02-23T06:24:59;2.67;;;1.20;;
22318;SDS011;11327;52.334;9.506;2024-02-23T06:28:20;4.25;;;1.22;;
22318;SDS011;11327;52.334;9.506;2024-02-23T06:31:41;3.30;;;1.20;;
22318;SDS011;11327;52.334;9.506;2024-02-23T06:35:02;2.45;;;1.10;;
22318;SDS011;11327;52.334;9.506;2024-02-23T06:38:23;3.33;;;1.37;;
22318;SDS011;11327;52.334;9.506;2024-02-23T06:41:44;2.62;;;1.02;;
22318;SDS011;11327;52.334;9.506;2024-02-23T06:45:05;4.45;;;1.30;;
22318;SDS011;11327;52.334;9.506;2024-02-23T06:48:26;3.55;;;1.15;;
22318;SDS011;11327;52.334;9.506;2024-02-23T06:51:46;4.00;;;1.40;;
22318;SDS011;11327;52.334;9.506;2024-02-23T06:55:07;5.67;;;1.77;;
22318;SDS011;11327;52.334;9.506;2024-02-23T06:58:30;4.67;;;0.95;;
22318;SDS011;11327;52.334;9.506;2024-02-23T07:01:51;4.45;;;0.95;;
22318;SDS011;11327;52.334;9.506;2024-02-23T07:05:12;4.25;;;1.07;;
22318;SDS011;11327;52.334;9.506;2024-02-23T07:08:34;2.52;;;0.90;;
22318;SDS011;11327;52.334;9.506;2024-02-23T07:11:55;1.75;;;0.90;;
22318;SDS011;11327;52.334;9.506;2024-02-23T07:15:15;4.78;;;1.00;;
22318;SDS011;11327;52.334;9.506;2024-02-23T07:18:36;3.95;;;1.12;;
22318;SDS011;11327;52.334;9.506;2024-02-23T07:21:57;4.37;;;1.05;;
22318;SDS011;11327;52.334;9.506;2024-02-23T07:25:18;2.67;;;0.80;;
22318;SDS011;11327;52.334;9.506;2024-02-23T07:28:42;4.12;;;0.88;;
22318;SDS011;11327;52.334;9.506;2024-02-23T07:32:03;6.15;;;0.93;;
22318;SDS011;11327;52.334;9.506;2024-02-23T07:35:24;6.37;;;1.45;;
22318;SDS011;11327;52.334;9.506;2024-02-23T07:38:45;6.45;;;3.40;;
22318;SDS011;11327;52.334;9.506;2024-02-23T07:42:06;2.55;;;1.00;;
22318;SDS011;11327;52.334;9.506;2024-02-23T07:45:28;2.92;;;1.60;;
22318;SDS011;11327;52.334;9.506;2024-02-23T07:48:49;3.15;;;1.10;;
22318;SDS011;11327;52.334;9.506;2024-02-23T07:52:10;5.80;;;2.12;;
22318;SDS011;11327;52.334;9.506;2024-02-23T07:55:30;4.92;;;1.10;;
22318;SDS011;11327;52.334;9.506;2024-02-23T07:58:51;4.70;;;0.88;;
22318;SDS011;11327;52.334;9.506;2024-02-23T08:02:12;4.45;;;0.85;;
22318;SDS011;11327;52.334;9.506;2024-02-23T08:05:33;4.45;;;0.68;;
22318;SDS011;11327;52.334;9.506;2024-02-23T08:08:55;4.33;;;0.55;;
22318;SDS011;11327;52.334;9.506;2024-02-23T08:12:16;3.40;;;0.90;;
22318;SDS011;11327;52.334;9.506;2024-02-23T08:15:36;3.87;;;0.60;;
22318;SDS011;11327;52.334;9.506;2024-02-23T08:18:57;3.75;;;0.70;;
22318;SDS011;11327;52.334;9.506;2024-02-23T08:22:18;1.95;;;0.68;;
22318;SDS011;11327;52.334;9.506;2024-02-23T08:25:39;3.00;;;0.57;;
22318;SDS011;11327;52.334;9.506;2024-02-23T08:28:59;3.60;;;0.60;;
22318;SDS011;11327;52.334;9.506;2024-02-23T08:32:20;5.15;;;0.62;;
22318;SDS011;11327;52.334;9.506;2024-02-23T08:35:41;1.95;;;0.53;;
22318;SDS011;11327;52.334;9.506;2024-02-23T08:39:02;3.87;;;0.82;;
22318;SDS011;11327;52.334;9.506;2024-02-23T08:42:23;4.53;;;0.80;;
22318;SDS011;11327;52.334;9.506;2024-02-23T08:45:44;2.75;;;0.70;;
22318;SDS011;11327;52.334;9.506;2024-02-23T08:49:05;6.15;;;2.87;;
22318;SDS011;11327;52.334;9.506;2024-02-23T08:52:26;11.18;;;4.35;;
22318;SDS011;11327;52.334;9.506;2024-02-23T08:55:46;9.78;;;2.95;;
22318;SDS011;11327;52.334;9.506;2024-02-23T08:59:07;5.97;;;2.47;;
22318;SDS011;11327;52.334;9.506;2024-02-23T09:02:29;4.17;;;1.30;;
22318;SDS011;11327;52.334;9.506;2024-02-23T09:05:50;3.10;;;1.30;;
22318;SDS011;11327;52.334;9.506;2024-02-23T09:09:11;5.17;;;0.90;;
22318;SDS011;11327;52.334;9.506;2024-02-23T09:12:32;4.47;;;0.93;;
22318;SDS011;11327;52.334;9.506;2024-02-23T09:15:52;2.65;;;0.50;;
22318;SDS011;11327;52.334;9.506;2024-02-23T09:19:13;3.60;;;0.50;;
22318;SDS011;11327;52.334;9.506;2024-02-23T09:22:34;2.95;;;0.57;;
22318;SDS011;11327;52.334;9.506;2024-02-23T09:25:56;4.25;;;0.50;;
22318;SDS011;11327;52.334;9.506;2024-02-23T09:29:16;2.98;;;0.53;;
22318;SDS011;11327;52.334;9.506;2024-02-23T09:32:37;2.08;;;0.40;;
22318;SDS011;11327;52.334;9.506;2024-02-23T09:35:58;1.85;;;0.53;;
22318;SDS011;11327;52.334;9.506;2024-02-23T09:39:19;2.20;;;0.42;;
22318;SDS011;11327;52.334;9.506;2024-02-23T09:42:40;3.58;;;0.47;;
22318;SDS011;11327;52.334;9.506;2024-02-23T09:46:02;1.02;;;0.30;;
22318;SDS011;11327;52.334;9.506;2024-02-23T09:49:23;1.37;;;0.33;;
22318;SDS011;11327;52.334;9.506;2024-02-23T09:52:44;4.75;;;0.55;;
22318;SDS011;11327;52.334;9.506;2024-02-23T09:56:08;2.27;;;0.50;;
22318;SDS011;11327;52.334;9.506;2024-02-23T09:59:29;1.77;;;0.30;;
22318;SDS011;11327;52.334;9.506;2024-02-23T10:02:51;3.65;;;0.72;;
22318;SDS011;11327;52.334;9.506;2024-02-23T10:06:13;3.50;;;0.50;;
22318;SDS011;11327;52.334;9.506;2024-02-23T10:09:34;2.87;;;0.40;;
22318;SDS011;11327;52.334;9.506;2024-02-23T10:12:55;2.42;;;0.50;;
22318;SDS011;11327;52.334;9.506;2024-02-23T10:16:16;3.08;;;0.40;;
22318;SDS011;11327;52.334;9.506;2024-02-23T10:19:37;0.65;;;0.25;;
22318;SDS011;11327;52.334;9.506;2024-02-23T10:22:58;2.62;;;0.53;;
22318;SDS011;11327;52.334;9.506;2024-02-23T10:26:19;7.22;;;2.95;;
22318;SDS011;11327;52.334;9.506;2024-02-23T10:29:42;8.13;;;4.05;;
22318;SDS011;11327;52.334;9.506;2024-02-23T10:33:02;8.65;;;4.20;;
22318;SDS011;11327;52.334;9.506;2024-02-23T10:36:26;10.53;;;4.42;;
22318;SDS011;11327;52.334;9.506;2024-02-23T10:39:51;4.50;;;1.17;;
22318;SDS011;11327;52.334;9.506;2024-02-23T10:43:16;3.37;;;1.22;;
22318;SDS011;11327;52.334;9.506;2024-02-23T10:46:40;3.77;;;2.02;;
22318;SDS011;11327;52.334;9.506;2024-02-23T10:50:01;2.47;;;0.82;;
22318;SDS011;11327;52.334;9.506;2024-02-23T10:53:23;2.87;;;0.82;;
22318;SDS011;11327;52.334;9.506;2024-02-23T10:56:45;3.40;;;0.70;;
22318;SDS011;11327;52.334;9.506;2024-02-23T11:00:07;2.80;;;0.90;;
22318;SDS011;11327;52.334;9.506;2024-02-23T11:03:33;3.80;;;0.57;;
22318;SDS011;11327;52.334;9.506;2024-02-23T11:06:56;2.52;;;0.50;;
22318;SDS011;11327;52.334;9.506;2024-02-23T11:10:18;2.58;;;0.60;;
22318;SDS011;11327;52.334;9.506;2024-02-23T11:13:42;3.05;;;0.55;;
22318;SDS011;11327;52.334;9.506;2024-02-23T11:17:04;1.92;;;0.60;;
22318;SDS011;11327;52.334;9.506;2024-02-23T11:20:33;2.62;;;0.60;;
22318;SDS011;11327;52.334;9.506;2024-02-23T11:23:54;1.85;;;0.60;;
22318;SDS011;11327;52.334;9.506;2024-02-23T11:27:15;3.83;;;0.50;;
22318;SDS011;11327;52.334;9.506;2024-02-23T11:30:38;3.45;;;0.80;;
22318;SDS011;11327;52.334;9.506;2024-02-23T11:34:07;2.65;;;0.80;;
22318;SDS011;11327;52.334;9.506;2024-02-23T11:37:31;2.67;;;0.65;;
22318;SDS011;11327;52.334;9.506;2024-02-23T11:40:50;4.58;;;0.78;;
22318;SDS011;11327;52.334;9.506;2024-02-23T11:44:12;2.62;;;0.70;;
22318;SDS011;11327;52.334;9.506;2024-02-23T11:47:34;3.52;;;0.65;;
22318;SDS011;11327;52.334;9.506;2024-02-23T11:50:54;2.90;;;1.00;;
22318;SDS011;11327;52.334;9.506;2024-02-23T11:54:15;3.62;;;0.70;;
22318;SDS011;11327;52.334;9.506;2024-02-23T11:57:36;2.12;;;0.60;;
22318;SDS011;11327;52.334;9.506;2024-02-23T12:00:58;2.20;;;0.90;;
22318;SDS011;11327;52.334;9.506;2024-02-23T12:04:21;3.15;;;0.65;;
22318;SDS011;11327;52.334;9.506;2024-02-23T12:07:41;1.82;;;0.70;;
22318;SDS011;11327;52.334;9.506;2024-02-23T12:11:08;3.22;;;0.82;;
22318;SDS011;11327;52.334;9.506;2024-02-23T12:14:28;3.62;;;1.05;;
22318;SDS011;11327;52.334;9.506;2024-02-23T12:17:49;2.62;;;0.80;;
22318;SDS011;11327;52.334;9.506;2024-02-23T12:21:10;6.87;;;2.33;;
22318;SDS011;11327;52.334;9.506;2024-02-23T12:24:31;4.50;;;0.80;;
22318;SDS011;11327;52.334;9.506;2024-02-23T12:27:56;3.30;;;0.80;;
22318;SDS011;11327;52.334;9.506;2024-02-23T12:31:16;3.00;;;0.57;;
22318;SDS011;11327;52.334;9.506;2024-02-23T12:34:40;2.72;;;0.82;;
22318;SDS011;11327;52.334;9.506;2024-02-23T12:38:04;1.80;;;0.75;;
22318;SDS011;11327;52.334;9.506;2024-02-23T12:41:25;2.08;;;0.90;;
22318;SDS011;11327;52.334;9.506;2024-02-23T12:44:46;2.72;;;0.60;;
22318;SDS011;11327;52.334;9.506;2024-02-23T12:48:07;4.58;;;0.75;;
22318;SDS011;11327;52.334;9.506;2024-02-23T12:51:28;2.55;;;0.53;;
22318;SDS011;11327;52.334;9.506;2024-02-23T12:54:49;3.02;;;0.60;;
22318;SDS011;11327;52.334;9.506;2024-02-23T12:58:10;3.30;;;0.80;;
22318;SDS011;11327;52.334;9.506;2024-02-23T13:01:30;3.45;;;0.90;;
22318;SDS011;11327;52.334;9.506;2024-02-23T13:04:53;2.22;;;0.57;;
22318;SDS011;11327;52.334;9.506;2024-02-23T13:08:14;1.32;;;0.47;;
22318;SDS011;11327;52.334;9.506;2024-02-23T13:11:34;3.42;;;0.60;;
22318;SDS011;11327;52.334;9.506;2024-02-23T13:14:57;2.83;;;0.60;;
22318;SDS011;11327;52.334;9.506;2024-02-23T13:18:18;2.65;;;0.55;;
22318;SDS011;11327;52.334;9.506;2024-02-23T13:21:42;2.85;;;0.60;;
22318;SDS011;11327;52.334;9.506;2024-02-23T13:25:03;2.95;;;0.50;;
22318;SDS011;11327;52.334;9.506;2024-02-23T13:28:24;3.27;;;1.05;;
22318;SDS011;11327;52.334;9.506;2024-02-23T13:31:44;2.98;;;0.82;;
22318;SDS011;11327;52.334;9.506;2024-02-23T13:35:05;4.72;;;1.10;;
22318;SDS011;11327;52.334;9.506;2024-02-23T13:38:26;4.67;;;0.72;;
22318;SDS011;11327;52.334;9.506;2024-02-23T13:41:47;1.98;;;0.42;;
22318;SDS011;11327;52.334;9.506;2024-02-23T13:45:08;9.55;;;3.20;;
22318;SDS011;11327;52.334;9.506;2024-02-23T13:48:29;11.53;;;3.50;;
22318;SDS011;11327;52.334;9.506;2024-02-23T13:51:50;9.48;;;3.05;;
22318;SDS011;11327;52.334;9.506;2024-02-23T13:55:11;7.37;;;2.30;;
22318;SDS011;11327;52.334;9.506;2024-02-23T13:58:32;5.50;;;1.80;;
22318;SDS011;11327;52.334;9.506;2024-02-23T14:01:53;5.30;;;2.50;;
22318;SDS011;11327;52.334;9.506;2024-02-23T14:05:14;5.30;;;2.42;;
22318;SDS011;11327;52.334;9.506;2024-02-23T14:08:35;4.15;;;1.90;;
22318;SDS011;11327;52.334;9.506;2024-02-23T14:11:57;5.53;;;2.40;;
22318;SDS011;11327;52.334;9.506;2024-02-23T14:15:19;3.00;;;1.20;;
22318;SDS011;11327;52.334;9.506;2024-02-23T14:18:40;2.10;;;0.85;;
22318;SDS011;11327;52.334;9.506;2024-02-23T14:22:02;2.95;;;1.20;;
22318;SDS011;11327;52.334;9.506;2024-02-23T14:25:23;5.10;;;2.27;;
22318;SDS011;11327;52.334;9.506;2024-02-23T14:28:44;4.65;;;1.90;;
22318;SDS011;11327;52.334;9.506;2024-02-23T14:32:05;8.38;;;3.22;;
22318;SDS011;11327;52.334;9.506;2024-02-23T14:35:25;3.75;;;1.42;;
22318;SDS011;11327;52.334;9.506;2024-02-23T14:38:46;5.22;;;1.90;;
22318;SDS011;11327;52.334;9.506;2024-02-23T14:42:07;3.40;;;1.00;;
22318;SDS011;11327;52.334;9.506;2024-02-23T14:45:31;4.80;;;1.52;;
22318;SDS011;11327;52.334;9.506;2024-02-23T14:48:52;4.97;;;2.05;;
22318;SDS011;11327;52.334;9.506;2024-02-23T14:52:15;3.60;;;1.67;;
22318;SDS011;11327;52.334;9.506;2024-02-23T14:55:36;2.47;;;1.00;;
22318;SDS011;11327;52.334;9.506;2024-02-23T14:58:56;2.00;;;0.80;;
22318;SDS011;11327;52.334;9.506;2024-02-23T15:02:21;3.60;;;0.98;;
22318;SDS011;11327;52.334;9.506;2024-02-23T15:05:42;2.75;;;1.20;;
22318;SDS011;11327;52.334;9.506;2024-02-23T15:09:03;6.47;;;2.50;;
22318;SDS011;11327;52.334;9.506;2024-02-23T15:12:24;2.00;;;0.80;;
22318;SDS011;11327;52.334;9.506;2024-02-23T15:15:47;5.30;;;1.92;;
22318;SDS011;11327;52.334;9.506;2024-02-23T15:19:07;3.37;;;1.12;;
22318;SDS011;11327;52.334;9.506;2024-02-23T15:22:28;2.58;;;1.12;;
22318;SDS011;11327;52.334;9.506;2024-02-23T15:25:50;4.00;;;1.55;;
22318;SDS011;11327;52.334;9.506;2024-02-23T15:29:10;1.90;;;0.60;;
22318;SDS011;11327;52.334;9.506;2024-02-23T15:32:32;2.83;;;0.68;;
22318;SDS011;11327;52.334;9.506;2024-02-23T15:35:53;2.60;;;0.70;;
22318;SDS011;11327;52.334;9.506;2024-02-23T15:39:14;2.72;;;0.80;;
22318;SDS011;11327;52.334;9.506;2024-02-23T15:42:35;3.72;;;1.10;;
22318;SDS011;11327;52.334;9.506;2024-02-23T15:45:56;3.47;;;1.15;;
22318;SDS011;11327;52.334;9.506;2024-02-23T15:49:17;3.85;;;1.42;;
22318;SDS011;11327;52.334;9.506;2024-02-23T15:52:40;4.08;;;1.92;;
22318;SDS011;11327;52.334;9.506;2024-02-23T15:56:01;4.55;;;1.60;;
22318;SDS011;11327;52.334;9.506;2024-02-23T15:59:22;2.95;;;1.22;;
22318;SDS011;11327;52.334;9.506;2024-02-23T16:02:43;2.42;;;1.27;;
22318;SDS011;11327;52.334;9.506;2024-02-23T16:06:03;1.87;;;0.82;;
22318;SDS011;11327;52.334;9.506;2024-02-23T16:09:24;3.47;;;1.35;;
22318;SDS011;11327;52.334;9.506;2024-02-23T16:12:49;2.55;;;1.10;;
22318;SDS011;11327;52.334;9.506;2024-02-23T16:16:11;4.10;;;0.82;;
22318;SDS011;11327;52.334;9.506;2024-02-23T16:19:32;4.05;;;1.40;;
22318;SDS011;11327;52.334;9.506;2024-02-23T16:22:52;2.12;;;0.53;;
22318;SDS011;11327;52.334;9.506;2024-02-23T16:26:13;4.20;;;1.72;;
22318;SDS011;11327;52.334;9.506;2024-02-23T16:29:34;5.45;;;2.45;;
22318;SDS011;11327;52.334;9.506;2024-02-23T16:32:56;2.47;;;1.10;;
22318;SDS011;11327;52.334;9.506;2024-02-23T16:36:16;2.65;;;0.70;;
22318;SDS011;11327;52.334;9.506;2024-02-23T16:39:37;2.42;;;0.80;;
22318;SDS011;11327;52.334;9.506;2024-02-23T16:42:58;2.02;;;0.93;;
22318;SDS011;11327;52.334;9.506;2024-02-23T16:46:19;2.47;;;1.12;;
22318;SDS011;11327;52.334;9.506;2024-02-23T16:49:40;2.27;;;0.68;;
22318;SDS011;11327;52.334;9.506;2024-02-23T16:53:01;3.55;;;1.12;;
22318;SDS011;11327;52.334;9.506;2024-02-23T16:56:21;3.35;;;2.08;;
22318;SDS011;11327;52.334;9.506;2024-02-23T16:59:42;7.70;;;1.67;;
22318;SDS011;11327;52.334;9.506;2024-02-23T17:03:03;1.65;;;0.90;;
22318;SDS011;11327;52.334;9.506;2024-02-23T17:06:24;3.87;;;1.65;;
22318;SDS011;11327;52.334;9.506;2024-02-23T17:09:45;3.08;;;1.07;;
22318;SDS011;11327;52.334;9.506;2024-02-23T17:13:07;5.72;;;1.02;;
22318;SDS011;11327;52.334;9.506;2024-02-23T17:16:28;3.62;;;1.35;;
22318;SDS011;11327;52.334;9.506;2024-02-23T17:19:49;2.65;;;1.32;;
22318;SDS011;11327;52.334;9.506;2024-02-23T17:23:10;5.15;;;2.25;;
22318;SDS011;11327;52.334;9.506;2024-02-23T17:26:31;2.85;;;1.42;;
22318;SDS011;11327;52.334;9.506;2024-02-23T17:29:51;2.80;;;0.80;;
22318;SDS011;11327;52.334;9.506;2024-02-23T17:33:13;2.85;;;1.12;;
22318;SDS011;11327;52.334;9.506;2024-02-23T17:36:34;3.10;;;0.95;;
22318;SDS011;11327;52.334;9.506;2024-02-23T17:39:54;3.87;;;0.90;;
22318;SDS011;11327;52.334;9.506;2024-02-23T17:43:16;3.47;;;1.10;;
22318;SDS011;11327;52.334;9.506;2024-02-23T17:46:38;4.00;;;0.80;;
22318;SDS011;11327;52.334;9.506;2024-02-23T17:50:00;2.70;;;0.95;;
22318;SDS011;11327;52.334;9.506;2024-02-23T17:53:21;2.55;;;1.22;;
22318;SDS011;11327;52.334;9.506;2024-02-23T17:56:42;2.22;;;1.00;;
22318;SDS011;11327;52.334;9.506;2024-02-23T18:00:03;3.65;;;0.90;;
22318;SDS011;11327;52.334;9.506;2024-02-23T18:03:24;3.22;;;1.10;;
22318;SDS011;11327;52.334;9.506;2024-02-23T18:06:45;3.87;;;1.22;;
22318;SDS011;11327;52.334;9.506;2024-02-23T18:10:05;3.60;;;0.80;;
22318;SDS011;11327;52.334;9.506;2024-02-23T18:13:27;3.77;;;0.70;;
22318;SDS011;11327;52.334;9.506;2024-02-23T18:16:48;3.30;;;0.78;;
22318;SDS011;11327;52.334;9.506;2024-02-23T18:20:10;5.20;;;1.02;;
22318;SDS011;11327;52.334;9.506;2024-02-23T18:23:33;2.50;;;0.88;;
22318;SDS011;11327;52.334;9.506;2024-02-23T18:26:53;2.35;;;0.75;;
22318;SDS011;11327;52.334;9.506;2024-02-23T18:30:14;3.17;;;0.80;;
22318;SDS011;11327;52.334;9.506;2024-02-23T18:33:35;2.50;;;1.02;;
22318;SDS011;11327;52.334;9.506;2024-02-23T18:36:56;1.80;;;0.80;;
22318;SDS011;11327;52.334;9.506;2024-02-23T18:40:17;2.42;;;0.70;;
22318;SDS011;11327;52.334;9.506;2024-02-23T18:43:38;2.17;;;0.80;;
22318;SDS011;11327;52.334;9.506;2024-02-23T18:47:01;2.98;;;0.70;;
22318;SDS011;11327;52.334;9.506;2024-02-23T18:50:22;2.92;;;0.80;;
22318;SDS011;11327;52.334;9.506;2024-02-23T18:53:43;2.12;;;0.70;;
22318;SDS011;11327;52.334;9.506;2024-02-23T18:57:03;2.50;;;0.70;;
22318;SDS011;11327;52.334;9.506;2024-02-23T19:00:25;1.40;;;0.80;;
22318;SDS011;11327;52.334;9.506;2024-02-23T19:03:46;3.47;;;0.93;;
22318;SDS011;11327;52.334;9.506;2024-02-23T19:07:07;4.28;;;1.10;;
22318;SDS011;11327;52.334;9.506;2024-02-23T19:10:27;1.85;;;0.90;;
22318;SDS011;11327;52.334;9.506;2024-02-23T19:13:48;2.85;;;0.90;;
22318;SDS011;11327;52.334;9.506;2024-02-23T19:17:09;2.85;;;0.95;;
22318;SDS011;11327;52.334;9.506;2024-02-23T19:20:30;1.77;;;0.80;;
22318;SDS011;11327;52.334;9.506;2024-02-23T19:23:51;2.30;;;0.95;;
22318;SDS011;11327;52.334;9.506;2024-02-23T19:27:12;2.77;;;0.88;;
22318;SDS011;11327;52.334;9.506;2024-02-23T19:30:32;2.98;;;0.88;;
22318;SDS011;11327;52.334;9.506;2024-02-23T19:33:53;4.30;;;1.02;;
22318;SDS011;11327;52.334;9.506;2024-02-23T19:37:14;2.33;;;0.93;;
22318;SDS011;11327;52.334;9.506;2024-02-23T19:40:37;2.60;;;0.90;;
22318;SDS011;11327;52.334;9.506;2024-02-23T19:43:58;3.20;;;1.20;;
22318;SDS011;11327;52.334;9.506;2024-02-23T19:47:18;5.22;;;1.02;;
22318;SDS011;11327;52.334;9.506;2024-02-23T19:50:39;2.90;;;1.10;;
22318;SDS011;11327;52.334;9.506;2024-02-23T19:54:00;4.65;;;1.47;;
22318;SDS011;11327;52.334;9.506;2024-02-23T19:57:21;2.65;;;1.10;;
22318;SDS011;11327;52.334;9.506;2024-02-23T20:00:41;3.87;;;1.10;;
22318;SDS011;11327;52.334;9.506;2024-02-23T20:04:02;4.35;;;1.22;;
22318;SDS011;11327;52.334;9.506;2024-02-23T20:07:23;4.20;;;1.20;;
22318;SDS011;11327;52.334;9.506;2024-02-23T20:10:44;5.17;;;1.00;;
22318;SDS011;11327;52.334;9.506;2024-02-23T20:14:05;6.10;;;3.17;;